Time;durP1;ratioP1;P1;durP2;ratioP2;P2;SDS_P1;SDS_P2;PMS_P1;PMS_P2;Temp;Humidity;BMP_temperature;BMP_pressure;BME280_temperature;BME280_humidity;BME280_pressure;Samples;Min_cycle;Max_cycle;Signal;HPM_P1;HPM_P2
2023/04/04 00:02:35;;;;;;;2.70;2.05;;;7.20;99.90;;;;;;1948203;72;22259;-80
2023/04/04 00:05:27;;;;;;;3.10;1.80;;;7.20;99.90;;;;;;1889094;74;21102;-80
2023/04/04 00:08:18;;;;;;;2.10;1.72;;;7.10;99.90;;;;;;1888623;75;21130;-80
2023/04/04 00:13:48;;;;;;;2.17;1.82;;;7.10;99.90;;;;;;1935139;72;22247;-80
2023/04/04 00:16:40;;;;;;;2.72;2.10;;;7.10;99.90;;;;;;1925762;73;21106;-80
2023/04/04 00:19:31;;;;;;;2.35;1.77;;;7.10;99.90;;;;;;1883011;75;21367;-79
2023/04/04 00:22:22;;;;;;;2.90;2.05;;;7.20;99.90;;;;;;1887696;75;21100;-79
2023/04/04 00:27:59;;;;;;;3.10;2.00;;;7.20;99.90;;;;;;1949236;72;22186;-80
2023/04/04 00:33:30;;;;;;;3.27;1.98;;;7.10;99.90;;;;;;1963389;72;22644;-80
2023/04/04 00:36:22;;;;;;;3.15;2.00;;;7.10;99.90;;;;;;1939229;73;21185;-79
2023/04/04 00:39:13;;;;;;;1.65;1.30;;;7.00;99.90;;;;;;1947712;73;21102;-80
2023/04/04 00:42:05;;;;;;;2.87;2.00;;;7.00;99.90;;;;;;1932277;73;21179;-80
2023/04/04 00:47:36;;;;;;;2.33;2.00;;;7.00;99.90;;;;;;1930222;72;22232;-79
2023/04/04 00:53:07;;;;;;;3.05;2.33;;;7.00;99.90;;;;;;1948504;72;22238;-80
2023/04/04 00:55:58;;;;;;;2.77;2.30;;;7.00;99.90;;;;;;1890300;75;21101;-79
2023/04/04 00:58:50;;;;;;;3.22;2.50;;;7.00;99.90;;;;;;1864178;75;21171;-79
2023/04/04 01:01:42;;;;;;;2.12;1.72;;;7.00;99.90;;;;;;1897434;75;21140;-80
2023/04/04 01:04:33;;;;;;;2.47;2.00;;;7.00;99.90;;;;;;1872503;75;21104;-79
2023/04/04 01:07:25;;;;;;;2.58;1.98;;;7.00;99.90;;;;;;1890289;75;21076;-79
2023/04/04 01:10:17;;;;;;;3.10;2.22;;;7.00;99.90;;;;;;1881270;75;21148;-79
2023/04/04 01:13:08;;;;;;;4.05;2.40;;;6.90;99.90;;;;;;1875768;75;21381;-79
2023/04/04 01:18:39;;;;;;;2.17;1.90;;;7.00;99.90;;;;;;1951117;72;22326;-80
2023/04/04 01:21:31;;;;;;;2.60;2.00;;;6.90;99.90;;;;;;1943934;73;21090;-80
2023/04/04 01:24:24;;;;;;;3.10;2.27;;;6.90;99.90;;;;;;1947766;73;21188;-79
2023/04/04 01:27:17;;;;;;;2.65;2.08;;;6.80;99.90;;;;;;1934499;73;21148;-79
2023/04/04 01:30:12;;;;;;;2.50;2.02;;;6.80;99.90;;;;;;1916978;73;21527;-79
2023/04/04 01:33:06;;;;;;;2.87;2.27;;;6.80;99.90;;;;;;1915969;73;21101;-80
2023/04/04 01:36:04;;;;;;;2.95;2.45;;;6.80;99.90;;;;;;1937621;73;21164;-80
2023/04/04 01:38:58;;;;;;;3.77;2.27;;;6.80;99.90;;;;;;1917314;75;21132;-79
2023/04/04 01:41:51;;;;;;;2.87;2.20;;;6.90;99.90;;;;;;1938327;73;21094;-79
2023/04/04 01:44:43;;;;;;;2.80;1.72;;;6.90;99.90;;;;;;1916937;75;21097;-78
2023/04/04 01:47:40;;;;;;;3.52;2.45;;;6.80;99.90;;;;;;1921151;73;21133;-78
2023/04/04 01:50:33;;;;;;;3.12;2.27;;;6.70;99.90;;;;;;1937078;73;21139;-80
2023/04/04 01:53:25;;;;;;;2.95;2.65;;;6.70;99.90;;;;;;1919635;73;21113;-80
2023/04/04 01:56:16;;;;;;;2.55;2.12;;;6.70;99.90;;;;;;1918780;73;21164;-79
2023/04/04 01:59:08;;;;;;;4.33;2.35;;;6.70;99.90;;;;;;1945070;73;21086;-79
2023/04/04 02:02:00;;;;;;;3.75;2.40;;;6.70;99.90;;;;;;1934714;73;21101;-79
2023/04/04 02:07:29;;;;;;;3.08;2.30;;;6.60;99.90;;;;;;1943073;72;22147;-80
2023/04/04 02:10:21;;;;;;;2.55;2.15;;;6.70;99.90;;;;;;1928407;73;21596;-80
2023/04/04 02:13:12;;;;;;;4.22;2.27;;;6.60;99.90;;;;;;1933859;73;21086;-80
2023/04/04 02:16:05;;;;;;;2.47;2.12;;;6.50;99.90;;;;;;1918565;73;21116;-79
2023/04/04 02:18:56;;;;;;;2.83;2.40;;;6.60;99.90;;;;;;1926424;73;21082;-79
2023/04/04 02:21:48;;;;;;;1.90;1.75;;;6.50;99.90;;;;;;1919710;73;21102;-78
2023/04/04 02:24:39;;;;;;;2.62;2.40;;;6.50;99.90;;;;;;1926690;73;21479;-78
2023/04/04 02:27:30;;;;;;;2.55;2.27;;;6.50;99.90;;;;;;1917723;73;21142;-78
2023/04/04 02:33:02;;;;;;;2.52;2.02;;;6.50;99.90;;;;;;1925197;72;22190;-80
2023/04/04 02:35:56;;;;;;;3.02;2.42;;;6.40;99.90;;;;;;1907089;75;21154;-79
2023/04/04 02:41:27;;;;;;;3.75;2.22;;;6.40;99.90;;;;;;1934241;72;22193;-80
2023/04/04 02:44:19;;;;;;;2.40;2.20;;;6.50;99.90;;;;;;1887890;75;21101;-80
2023/04/04 02:47:12;;;;;;;2.30;2.10;;;6.50;99.90;;;;;;1900714;75;21094;-80
2023/04/04 02:50:04;;;;;;;3.33;2.75;;;6.40;99.90;;;;;;1903348;75;21051;-79
2023/04/04 02:53:00;;;;;;;3.77;2.70;;;6.50;99.90;;;;;;1891062;75;21077;-79
2023/04/04 02:55:55;;;;;;;3.10;2.67;;;6.50;99.90;;;;;;1900048;73;21066;-79
2023/04/04 02:58:46;;;;;;;3.15;2.22;;;6.40;99.90;;;;;;1905323;75;21091;-78
2023/04/04 03:04:18;;;;;;;3.15;2.33;;;6.30;99.90;;;;;;1934254;72;22317;-80
2023/04/04 03:07:10;;;;;;;3.85;2.47;;;6.30;99.90;;;;;;1895842;75;21070;-80
2023/04/04 03:10:01;;;;;;;3.67;2.55;;;6.30;99.90;;;;;;1901413;75;21168;-80
2023/04/04 03:12:52;;;;;;;3.03;2.50;;;6.30;99.90;;;;;;1905992;75;21228;-79
2023/04/04 03:15:45;;;;;;;2.50;2.22;;;6.30;99.90;;;;;;1892995;75;21126;-79
2023/04/04 03:21:18;;;;;;;3.45;2.52;;;6.30;99.90;;;;;;1948792;72;22178;-80
2023/04/04 03:24:10;;;;;;;3.02;2.72;;;6.20;99.90;;;;;;1886360;74;21132;-79
2023/04/04 03:27:01;;;;;;;3.10;2.62;;;6.30;99.90;;;;;;1901996;75;21094;-79
2023/04/04 03:29:54;;;;;;;4.92;2.87;;;6.30;99.90;;;;;;1895342;74;21114;-79
2023/04/04 03:32:45;;;;;;;2.77;2.52;;;6.20;99.90;;;;;;1889460;75;21125;-81
2023/04/04 03:35:39;;;;;;;2.90;2.60;;;6.30;99.90;;;;;;1901512;75;21110;-79
2023/04/04 03:38:31;;;;;;;2.90;2.52;;;6.30;99.90;;;;;;1899515;75;21103;-81
2023/04/04 03:41:22;;;;;;;3.25;2.80;;;6.20;99.90;;;;;;1917017;74;21102;-79
2023/04/04 03:44:13;;;;;;;2.15;1.95;;;6.20;99.90;;;;;;1901268;74;21059;-79
2023/04/04 03:47:05;;;;;;;3.25;2.67;;;6.20;99.90;;;;;;1913426;74;21168;-79
2023/04/04 03:52:39;;;;;;;2.77;2.42;;;6.20;99.90;;;;;;1940026;72;22241;-80
2023/04/04 03:55:31;;;;;;;3.05;2.35;;;6.20;99.90;;;;;;1895401;75;21143;-79
2023/04/04 03:58:22;;;;;;;3.52;3.10;;;6.10;99.90;;;;;;1890643;75;22185;-79
2023/04/04 04:01:14;;;;;;;2.60;1.92;;;6.10;99.90;;;;;;1914860;73;21047;-79
2023/04/04 04:04:06;;;;;;;2.85;2.47;;;6.10;99.90;;;;;;1926310;73;21129;-79
2023/04/04 04:06:58;;;;;;;4.20;3.00;;;6.10;99.90;;;;;;1915530;75;21079;-80
2023/04/04 04:12:32;;;;;;;3.77;3.10;;;6.00;99.90;;;;;;1942559;72;22193;-81
2023/04/04 04:15:25;;;;;;;3.02;2.72;;;6.00;99.90;;;;;;1909665;75;21167;-79
2023/04/04 04:18:18;;;;;;;3.08;2.77;;;6.00;99.90;;;;;;1890489;75;21118;-80
2023/04/04 04:23:50;;;;;;;2.87;2.67;;;6.00;99.90;;;;;;1948304;72;22289;-81
2023/04/04 04:26:41;;;;;;;3.52;2.67;;;5.90;99.90;;;;;;1902222;75;21170;-80
2023/04/04 04:29:33;;;;;;;3.33;3.02;;;5.80;99.90;;;;;;1889863;75;21505;-80
2023/04/04 04:32:26;;;;;;;3.75;2.80;;;5.90;99.90;;;;;;1911685;75;21189;-80
2023/04/04 04:35:19;;;;;;;3.10;2.80;;;5.80;99.90;;;;;;1905842;75;21164;-80
2023/04/04 04:38:11;;;;;;;3.10;2.80;;;5.90;99.90;;;;;;1905212;75;21094;-79
2023/04/04 04:41:02;;;;;;;3.45;3.15;;;5.90;99.90;;;;;;1909249;74;21292;-80
2023/04/04 04:46:33;;;;;;;4.42;2.95;;;5.90;99.90;;;;;;1920342;72;22232;-80
2023/04/04 04:49:26;;;;;;;4.92;3.10;;;5.90;99.90;;;;;;1917430;74;21139;-80
2023/04/04 04:54:56;;;;;;;3.80;3.00;;;5.90;99.90;;;;;;1946283;72;22225;-80
2023/04/04 04:57:48;;;;;;;2.67;1.82;;;5.90;99.90;;;;;;1885730;75;21083;-79
2023/04/04 05:00:41;;;;;;;3.47;2.45;;;5.90;99.90;;;;;;1880258;74;21132;-80
2023/04/04 05:03:33;;;;;;;2.77;2.58;;;5.90;99.90;;;;;;1893031;75;21160;-80
2023/04/04 05:06:26;;;;;;;3.02;2.72;;;5.80;99.90;;;;;;1878502;75;21179;-81
2023/04/04 05:09:18;;;;;;;3.77;3.05;;;5.90;99.90;;;;;;1892032;74;21085;-80
2023/04/04 05:12:10;;;;;;;4.92;3.08;;;5.80;99.90;;;;;;1901398;74;21052;-80
2023/04/04 05:15:04;;;;;;;3.55;2.67;;;5.80;99.90;;;;;;1911695;74;21111;-80
2023/04/04 05:20:34;;;;;;;4.53;2.92;;;5.70;99.90;;;;;;1920143;72;22212;-80
2023/04/04 05:23:27;;;;;;;2.75;2.22;;;5.70;99.90;;;;;;1894173;75;21121;-80
2023/04/04 05:29:08;;;;;;;3.62;2.77;;;5.60;99.90;;;;;;1936289;72;22210;-80
2023/04/04 05:32:01;;;;;;;3.40;2.75;;;5.60;99.90;;;;;;1879831;75;21192;-81
2023/04/04 05:34:52;;;;;;;3.50;2.92;;;5.60;99.90;;;;;;1893008;75;21110;-81
2023/04/04 05:40:23;;;;;;;3.95;2.50;;;5.60;99.90;;;;;;1930170;72;22193;-81
2023/04/04 05:43:16;;;;;;;3.98;2.72;;;5.60;99.90;;;;;;1892047;73;21106;-80
2023/04/04 05:46:12;;;;;;;2.40;2.20;;;5.60;99.90;;;;;;1903250;73;21094;-80
2023/04/04 05:49:08;;;;;;;2.60;2.40;;;5.60;99.90;;;;;;1915603;73;21574;-79
2023/04/04 05:54:50;;;;;;;3.15;2.85;;;5.60;99.90;;;;;;1959528;72;22112;-80
2023/04/04 05:57:49;;;;;;;3.25;2.85;;;5.60;99.90;;;;;;1917066;73;21227;-80
2023/04/04 06:00:42;;;;;;;3.33;2.27;;;5.60;99.90;;;;;;1920337;73;21129;-79
2023/04/04 06:03:35;;;;;;;3.65;2.83;;;5.70;99.90;;;;;;1925676;73;21448;-79
2023/04/04 06:06:28;;;;;;;3.72;2.75;;;5.60;99.90;;;;;;1925079;74;21094;-79
2023/04/04 06:09:19;;;;;;;3.60;2.60;;;5.70;99.90;;;;;;1926104;73;21060;-79
2023/04/04 06:14:56;;;;;;;3.42;2.47;;;5.70;99.90;;;;;;1953530;72;20160;-81
2023/04/04 06:17:47;;;;;;;4.15;2.55;;;5.60;99.90;;;;;;1950081;73;21146;-80
2023/04/04 06:23:19;;;;;;;3.05;2.40;;;5.70;99.90;;;;;;1949631;72;22168;-80
2023/04/04 06:28:51;;;;;;;2.67;2.20;;;5.60;99.90;;;;;;1926565;72;22199;-80
2023/04/04 06:31:44;;;;;;;3.20;2.35;;;5.60;99.90;;;;;;1879577;75;21112;-81
2023/04/04 06:37:20;;;;;;;4.53;2.67;;;5.60;99.90;;;;;;1945722;72;22273;-80
2023/04/04 06:42:57;;;;;;;3.62;2.60;;;5.60;99.90;;;;;;1934738;72;22135;-80
2023/04/04 06:45:53;;;;;;;3.90;2.57;;;5.60;99.90;;;;;;1895277;74;21250;-80
2023/04/04 06:51:24;;;;;;;5.10;3.10;;;5.60;99.90;;;;;;1931936;72;22209;-80
2023/04/04 06:54:16;;;;;;;4.42;2.50;;;5.60;99.90;;;;;;1877153;74;21629;-80
2023/04/04 06:57:08;;;;;;;3.65;2.35;;;5.50;99.90;;;;;;1903179;74;21234;-80
2023/04/04 07:02:38;;;;;;;3.17;2.60;;;5.60;99.90;;;;;;1962994;72;22227;-80
2023/04/04 07:05:30;;;;;;;3.95;2.72;;;5.50;99.90;;;;;;1923869;73;21065;-80
2023/04/04 07:11:01;;;;;;;3.47;2.50;;;5.50;99.90;;;;;;1941903;72;22281;-80
2023/04/04 07:16:37;;;;;;;4.67;3.25;;;5.40;99.90;;;;;;1950221;72;22591;-80
2023/04/04 07:22:07;;;;;;;2.60;2.30;;;5.40;99.90;;;;;;1932172;72;22210;-80
2023/04/04 07:24:58;;;;;;;6.15;2.90;;;5.40;99.90;;;;;;1878737;75;21104;-79
2023/04/04 07:27:49;;;;;;;1.55;1.40;;;5.50;99.90;;;;;;1878472;75;21154;-80
2023/04/04 07:33:21;;;;;;;3.72;2.58;;;5.50;99.90;;;;;;1937080;72;22227;-80
2023/04/04 07:36:12;;;;;;;2.90;2.33;;;5.60;99.90;;;;;;1899659;75;21648;-79
2023/04/04 07:41:43;;;;;;;4.37;2.72;;;5.60;99.90;;;;;;1938367;72;22223;-80
2023/04/04 07:44:35;;;;;;;4.33;2.77;;;5.70;99.90;;;;;;1917440;74;21178;-79
2023/04/04 07:47:27;;;;;;;5.37;2.77;;;5.70;99.90;;;;;;1916170;74;21070;-80
2023/04/04 07:52:59;;;;;;;3.55;2.55;;;5.70;99.90;;;;;;1924791;72;22165;-79
2023/04/04 07:55:50;;;;;;;3.00;2.58;;;5.70;99.90;;;;;;1901154;75;21505;-80
2023/04/04 07:58:41;;;;;;;4.10;2.30;;;5.70;99.90;;;;;;1907074;74;21152;-79
2023/04/04 08:01:33;;;;;;;3.90;2.25;;;5.80;99.90;;;;;;1890829;74;21085;-81
2023/04/04 08:04:25;;;;;;;3.15;2.02;;;5.70;99.90;;;;;;1917287;74;21117;-81
2023/04/04 08:07:16;;;;;;;3.08;2.52;;;5.70;99.90;;;;;;1897867;75;21172;-79
2023/04/04 08:10:10;;;;;;;3.98;2.47;;;5.70;99.90;;;;;;1902869;75;21109;-79
2023/04/04 08:13:03;;;;;;;4.05;2.58;;;5.80;99.90;;;;;;1889771;74;21154;-79
2023/04/04 08:18:34;;;;;;;5.58;2.35;;;6.00;99.90;;;;;;1934482;72;22275;-79
2023/04/04 08:21:25;;;;;;;3.00;2.42;;;6.00;99.90;;;;;;1905931;75;21134;-78
2023/04/04 08:24:16;;;;;;;5.20;2.17;;;6.00;99.90;;;;;;1895362;75;21123;-80
2023/04/04 08:27:08;;;;;;;3.27;2.35;;;6.00;99.90;;;;;;1905930;75;21603;-79
2023/04/04 08:30:02;;;;;;;3.90;2.27;;;5.90;99.90;;;;;;1850132;77;21156;-79
2023/04/04 08:35:30;;;;;;;2.95;2.40;;;6.20;99.90;;;;;;1942980;72;22269;-79
2023/04/04 08:38:22;;;;;;;2.90;2.40;;;6.20;99.90;;;;;;1893369;75;21452;-79
2023/04/04 08:41:15;;;;;;;4.58;2.58;;;6.20;99.90;;;;;;1914650;75;21185;-80
2023/04/04 08:44:08;;;;;;;2.72;1.98;;;6.30;99.90;;;;;;1896289;75;21609;-80
2023/04/04 08:49:42;;;;;;;3.60;2.30;;;6.20;99.90;;;;;;1932789;72;22290;-80
2023/04/04 08:52:34;;;;;;;3.40;2.33;;;6.20;99.90;;;;;;1904291;75;21209;-80
2023/04/04 08:58:04;;;;;;;2.75;2.47;;;6.40;99.90;;;;;;1936768;72;22194;-80
2023/04/04 09:00:55;;;;;;;5.80;2.60;;;6.30;99.90;;;;;;1917497;74;21470;-80
2023/04/04 09:06:28;;;;;;;3.67;2.37;;;6.40;99.90;;;;;;1957693;72;22154;-80
2023/04/04 09:09:21;;;;;;;2.98;2.37;;;6.30;99.90;;;;;;1904837;75;21109;-80
2023/04/04 09:12:14;;;;;;;4.08;2.40;;;6.30;99.90;;;;;;1906272;75;21184;-80
2023/04/04 09:15:07;;;;;;;3.98;2.50;;;6.30;99.90;;;;;;1906483;75;21130;-80
2023/04/04 09:17:58;;;;;;;3.15;2.08;;;6.30;99.90;;;;;;1903420;75;21090;-80
2023/04/04 09:20:50;;;;;;;2.87;2.45;;;6.40;99.90;;;;;;1903118;75;21173;-81
2023/04/04 09:23:43;;;;;;;3.95;2.70;;;6.50;99.90;;;;;;1906389;75;21139;-80
2023/04/04 09:26:50;;;;;;;4.00;2.80;;;6.50;99.90;;;;;;1905990;75;21094;-80
2023/04/04 09:29:42;;;;;;;3.40;2.52;;;6.60;99.90;;;;;;1884048;75;21099;-80
2023/04/04 09:32:34;;;;;;;2.62;2.22;;;6.60;99.90;;;;;;1884238;75;21601;-79
2023/04/04 09:35:27;;;;;;;4.00;2.12;;;6.80;99.90;;;;;;1898800;75;21117;-80
2023/04/04 09:38:19;;;;;;;2.83;2.40;;;6.80;99.90;;;;;;1894518;75;21116;-80
2023/04/04 09:41:10;;;;;;;5.00;2.50;;;6.80;99.90;;;;;;1895074;75;21625;-80
2023/04/04 09:44:02;;;;;;;3.58;2.77;;;6.80;99.90;;;;;;1896129;75;21184;-79
2023/04/04 09:46:53;;;;;;;3.72;2.45;;;6.90;99.90;;;;;;1900373;75;21558;-81
2023/04/04 09:49:45;;;;;;;4.00;2.37;;;7.10;99.90;;;;;;1894627;75;21133;-80
2023/04/04 09:52:37;;;;;;;5.33;2.35;;;7.20;99.90;;;;;;1895151;75;21144;-80
2023/04/04 09:55:36;;;;;;;4.17;2.50;;;7.30;99.90;;;;;;1895188;75;21146;-80
2023/04/04 09:58:30;;;;;;;4.67;2.47;;;7.20;99.90;;;;;;1897871;75;21643;-79
2023/04/04 10:01:23;;;;;;;4.62;2.25;;;7.30;99.90;;;;;;1885414;75;21114;-79
2023/04/04 10:04:15;;;;;;;3.22;2.40;;;7.50;99.90;;;;;;1906282;75;21162;-81
2023/04/04 10:07:08;;;;;;;3.65;2.60;;;7.50;99.90;;;;;;1905779;75;21578;-79
2023/04/04 10:12:43;;;;;;;3.42;2.80;;;7.70;99.90;;;;;;1961975;72;22178;-80
2023/04/04 10:15:37;;;;;;;3.85;2.47;;;7.90;99.90;;;;;;1916879;75;21226;-80
2023/04/04 10:18:30;;;;;;;3.25;2.92;;;7.80;99.90;;;;;;1916864;75;21087;-80
2023/04/04 10:21:21;;;;;;;3.20;2.70;;;8.00;99.90;;;;;;1938370;73;21152;-80
2023/04/04 10:24:18;;;;;;;5.05;2.90;;;8.10;99.90;;;;;;1917165;75;21106;-80
2023/04/04 10:27:10;;;;;;;5.47;2.70;;;8.20;99.90;;;;;;1916597;75;21116;-80
2023/04/04 10:30:02;;;;;;;5.22;3.08;;;8.10;99.90;;;;;;1916979;75;21104;-79
2023/04/04 10:32:58;;;;;;;5.17;3.10;;;8.10;99.90;;;;;;1940810;73;21186;-79
2023/04/04 10:35:52;;;;;;;2.55;2.30;;;8.10;99.90;;;;;;1931355;73;21117;-79
2023/04/04 10:38:47;;;;;;;3.83;2.62;;;8.40;99.90;;;;;;1931277;73;21098;-80
2023/04/04 10:41:40;;;;;;;3.83;2.70;;;8.20;99.90;;;;;;1928030;73;21167;-79
2023/04/04 10:44:33;;;;;;;3.15;2.52;;;8.20;99.90;;;;;;1923953;73;21103;-79
2023/04/04 10:47:28;;;;;;;5.83;2.83;;;8.40;99.90;;;;;;1939074;73;21121;-80
2023/04/04 10:50:21;;;;;;;4.40;2.70;;;8.60;99.90;;;;;;1934589;73;21106;-79
2023/04/04 10:53:13;;;;;;;3.58;2.92;;;8.70;99.90;;;;;;1928821;73;21101;-79
2023/04/04 10:56:05;;;;;;;3.67;3.02;;;8.80;99.90;;;;;;1943200;73;21142;-79
2023/04/04 10:59:12;;;;;;;3.20;2.80;;;8.90;99.90;;;;;;1916393;75;21689;-79
2023/04/04 11:02:07;;;;;;;4.25;2.87;;;8.90;99.90;;;;;;1916644;75;21298;-79
2023/04/04 11:05:11;;;;;;;3.65;2.90;;;8.90;99.90;;;;;;1916881;75;21200;-79
2023/04/04 11:08:05;;;;;;;4.62;3.40;;;8.80;99.90;;;;;;1917014;75;21109;-81
2023/04/04 11:10:58;;;;;;;3.87;3.20;;;9.00;99.90;;;;;;1916869;73;21101;-80
2023/04/04 11:14:01;;;;;;;7.90;4.28;;;9.00;99.90;;;;;;1917179;75;21718;-79
2023/04/04 11:16:53;;;;;;;5.67;3.70;;;9.00;99.90;;;;;;1917079;75;21617;-79
2023/04/04 11:19:50;;;;;;;5.25;3.55;;;9.10;99.90;;;;;;1916974;75;21171;-80
2023/04/04 11:22:42;;;;;;;3.50;2.75;;;9.00;99.90;;;;;;1916798;75;21031;-80
2023/04/04 11:25:36;;;;;;;4.17;3.33;;;9.00;99.90;;;;;;1916426;75;21558;-79
2023/04/04 11:28:31;;;;;;;5.62;3.25;;;9.00;99.90;;;;;;1916330;75;21175;-80
2023/04/04 11:31:28;;;;;;;4.08;3.08;;;9.00;99.90;;;;;;1916342;75;21086;-80
2023/04/04 11:34:33;;;;;;;3.65;2.98;;;9.10;99.90;;;;;;1915973;75;21118;-80
2023/04/04 11:37:24;;;;;;;5.40;4.33;;;9.00;99.90;;;;;;1916288;75;21199;-80
2023/04/04 11:40:17;;;;;;;10.03;7.55;;;9.10;99.90;;;;;;1916026;75;21059;-79
2023/04/04 11:43:12;;;;;;;3.30;2.65;;;9.40;99.90;;;;;;1916232;75;21106;-80
2023/04/04 11:46:07;;;;;;;3.20;2.90;;;9.30;99.90;;;;;;1939222;73;21164;-80
2023/04/04 11:49:00;;;;;;;4.45;3.00;;;9.30;99.90;;;;;;1916528;75;21189;-80
2023/04/04 11:51:52;;;;;;;3.20;2.75;;;9.50;99.90;;;;;;1916516;75;21082;-80
2023/04/04 11:54:45;;;;;;;3.92;3.10;;;9.60;99.90;;;;;;1916579;75;21157;-80
2023/04/04 11:57:39;;;;;;;3.67;3.02;;;9.80;99.90;;;;;;1916643;75;21565;-80
2023/04/04 12:00:31;;;;;;;4.78;3.27;;;9.80;99.90;;;;;;1918351;73;21530;-79
2023/04/04 12:03:23;;;;;;;3.37;2.80;;;9.80;99.90;;;;;;1930671;73;21168;-80
2023/04/04 12:06:16;;;;;;;4.62;3.55;;;9.70;99.90;;;;;;1930570;73;21114;-80
2023/04/04 12:09:11;;;;;;;3.87;2.67;;;9.60;99.90;;;;;;1918190;73;21776;-80
2023/04/04 12:12:03;;;;;;;6.22;3.35;;;9.90;99.90;;;;;;1916735;75;21231;-80
2023/04/04 12:14:56;;;;;;;4.10;3.33;;;10.00;99.90;;;;;;1938570;73;21180;-80
2023/04/04 12:17:49;;;;;;;5.25;2.87;;;10.00;99.90;;;;;;1933029;73;21106;-79
2023/04/04 12:20:41;;;;;;;3.87;3.12;;;10.20;99.90;;;;;;1916449;75;21161;-81
2023/04/04 12:23:35;;;;;;;3.75;2.87;;;10.00;99.90;;;;;;1916601;75;21132;-80
2023/04/04 12:26:28;;;;;;;11.12;8.35;;;10.10;99.90;;;;;;1916566;75;21039;-80
2023/04/04 12:29:22;;;;;;;5.95;4.22;;;10.20;99.90;;;;;;1916579;75;21148;-80
2023/04/04 12:32:14;;;;;;;6.40;3.37;;;10.30;99.90;;;;;;1916249;75;21614;-79
2023/04/04 12:35:07;;;;;;;4.45;3.12;;;10.50;99.90;;;;;;1916293;75;21063;-79
2023/04/04 12:38:06;;;;;;;4.33;3.22;;;10.70;99.90;;;;;;1920170;73;21144;-79
2023/04/04 12:40:57;;;;;;;3.87;3.12;;;10.50;99.90;;;;;;1950279;73;21194;-79
2023/04/04 12:43:49;;;;;;;3.50;3.12;;;10.30;99.90;;;;;;1933151;73;21564;-79
2023/04/04 12:46:42;;;;;;;5.10;3.00;;;10.50;99.90;;;;;;1916538;75;21103;-81
2023/04/04 12:49:38;;;;;;;3.70;3.00;;;10.70;99.90;;;;;;1923385;73;21176;-79
2023/04/04 12:52:31;;;;;;;4.08;3.05;;;10.60;99.90;;;;;;1925353;73;21184;-79
2023/04/04 12:55:23;;;;;;;3.72;2.85;;;10.60;99.90;;;;;;1916371;75;21155;-79
2023/04/04 12:58:16;;;;;;;8.58;3.10;;;10.90;99.90;;;;;;1916494;75;21326;-79
2023/04/04 13:01:09;;;;;;;3.75;3.08;;;11.00;99.90;;;;;;1916516;75;21204;-80
2023/04/04 13:04:03;;;;;;;5.85;3.08;;;11.10;99.90;;;;;;1921953;73;21131;-79
2023/04/04 13:06:55;;;;;;;3.65;3.08;;;10.90;99.90;;;;;;1926639;73;21090;-79
2023/04/04 13:09:53;;;;;;;7.10;3.00;;;10.60;99.90;;;;;;1916511;75;21059;-79
2023/04/04 13:12:59;;;;;;;5.20;2.90;;;10.50;99.90;;;;;;1916401;75;21134;-80
2023/04/04 13:15:53;;;;;;;4.92;3.10;;;10.40;99.90;;;;;;1916321;75;21112;-79
2023/04/04 13:18:47;;;;;;;5.10;3.35;;;10.20;99.90;;;;;;1916212;75;21097;-81
2023/04/04 13:21:39;;;;;;;7.40;3.35;;;10.20;99.90;;;;;;1916322;75;21125;-80
2023/04/04 13:24:30;;;;;;;4.22;3.15;;;10.50;99.90;;;;;;1915859;75;21116;-80
2023/04/04 13:27:21;;;;;;;3.87;2.90;;;10.80;99.90;;;;;;1915779;75;21091;-80
2023/04/04 13:30:14;;;;;;;3.75;3.05;;;10.90;99.90;;;;;;1915867;74;21709;-80
2023/04/04 13:33:05;;;;;;;4.08;3.20;;;11.00;99.90;;;;;;1915997;75;21305;-80
2023/04/04 13:35:58;;;;;;;3.25;2.80;;;11.00;99.90;;;;;;1916333;75;21148;-80
2023/04/04 13:38:48;;;;;;;3.92;2.92;;;11.00;99.90;;;;;;1916242;75;21098;-79
2023/04/04 13:41:40;;;;;;;3.87;3.02;;;11.00;99.90;;;;;;1926782;73;21200;-79
2023/04/04 13:44:31;;;;;;;6.25;2.92;;;11.20;99.90;;;;;;1922090;73;21067;-79
2023/04/04 13:47:23;;;;;;;3.55;2.83;;;11.40;99.90;;;;;;1916100;75;21545;-79
2023/04/04 13:50:15;;;;;;;3.87;2.67;;;11.30;99.90;;;;;;1916321;75;21507;-80
2023/04/04 13:53:07;;;;;;;3.60;2.90;;;11.60;99.90;;;;;;1916134;75;21195;-80
2023/04/04 13:55:58;;;;;;;3.77;2.30;;;11.80;99.90;;;;;;1916194;75;21172;-80
2023/04/04 13:58:52;;;;;;;4.72;3.20;;;12.00;99.90;;;;;;1938783;73;21062;-79
2023/04/04 14:01:44;;;;;;;5.37;2.72;;;12.00;99.90;;;;;;1916802;73;21228;-79
2023/04/04 14:04:37;;;;;;;3.10;2.60;;;12.20;99.90;;;;;;1916321;75;21135;-79
2023/04/04 14:07:29;;;;;;;3.30;2.98;;;12.20;99.90;;;;;;1938712;73;21102;-80
2023/04/04 14:10:20;;;;;;;4.35;3.05;;;12.30;99.90;;;;;;1939189;73;21164;-80
2023/04/04 14:13:12;;;;;;;2.80;2.37;;;12.20;99.90;;;;;;1916426;75;21100;-80
2023/04/04 14:16:03;;;;;;;3.20;2.72;;;13.00;99.90;;;;;;1916460;75;21567;-79
2023/04/04 14:18:56;;;;;;;4.37;2.85;;;14.30;99.90;;;;;;1916029;74;21146;-81
2023/04/04 14:21:52;;;;;;;3.33;2.52;;;14.20;99.90;;;;;;1916308;75;21545;-81
2023/04/04 14:24:52;;;;;;;4.05;2.30;;;13.50;99.90;;;;;;1916332;75;21647;-81
2023/04/04 14:27:49;;;;;;;2.95;2.65;;;14.00;99.90;;;;;;1916198;75;21117;-79
2023/04/04 14:30:42;;;;;;;3.20;2.33;;;15.20;99.90;;;;;;1916305;75;21109;-79
2023/04/04 14:33:36;;;;;;;2.90;2.60;;;15.70;99.10;;;;;;1916119;75;21698;-79
2023/04/04 14:36:30;;;;;;;4.67;3.20;;;16.20;98.60;;;;;;1916319;75;21648;-79
2023/04/04 14:39:25;;;;;;;4.00;2.98;;;16.50;96.20;;;;;;1915973;75;21062;-80
2023/04/04 14:42:24;;;;;;;3.83;2.40;;;17.10;95.40;;;;;;1916179;75;21184;-80
2023/04/04 14:45:18;;;;;;;3.22;2.37;;;17.40;94.60;;;;;;1916467;75;21117;-79
2023/04/04 14:48:10;;;;;;;2.87;2.35;;;17.00;93.70;;;;;;1916219;75;21162;-79
2023/04/04 14:51:04;;;;;;;3.05;2.45;;;15.90;92.40;;;;;;1916286;75;21201;-80
2023/04/04 14:53:59;;;;;;;2.45;2.25;;;15.10;93.60;;;;;;1916189;75;21168;-80
2023/04/04 14:56:52;;;;;;;2.90;2.30;;;16.10;93.80;;;;;;1916074;75;21052;-80
2023/04/04 14:59:47;;;;;;;2.95;2.20;;;17.40;92.00;;;;;;1927846;73;21054;-80
2023/04/04 15:02:40;;;;;;;3.15;2.58;;;18.40;90.70;;;;;;1918171;73;21071;-79
2023/04/04 15:05:32;;;;;;;2.30;2.10;;;19.60;87.50;;;;;;1915910;75;21081;-79
2023/04/04 15:08:25;;;;;;;2.17;1.98;;;19.80;84.20;;;;;;1916252;75;21567;-79
2023/04/04 15:11:17;;;;;;;3.10;2.27;;;19.80;78.60;;;;;;1916190;75;21175;-79
2023/04/04 15:14:12;;;;;;;2.77;2.20;;;19.30;73.60;;;;;;1916343;75;21109;-79
2023/04/04 15:17:03;;;;;;;2.42;2.22;;;19.50;74.70;;;;;;1906565;74;21142;-79
2023/04/04 15:19:56;;;;;;;2.20;1.90;;;19.90;73.40;;;;;;1927241;74;21149;-80
2023/04/04 15:22:48;;;;;;;2.50;2.20;;;20.60;69.50;;;;;;1922883;74;21156;-80
2023/04/04 15:25:40;;;;;;;2.58;2.30;;;19.60;69.20;;;;;;1917392;74;21160;-80
2023/04/04 15:28:34;;;;;;;3.10;2.20;;;19.90;69.80;;;;;;1914726;74;21086;-80
2023/04/04 15:31:30;;;;;;;2.87;2.20;;;20.80;68.30;;;;;;1924025;73;21226;-79
2023/04/04 15:34:24;;;;;;;2.12;1.92;;;20.50;65.80;;;;;;1903978;75;21063;-80
2023/04/04 15:37:18;;;;;;;2.25;1.98;;;19.70;65.20;;;;;;1916420;75;21055;-79
2023/04/04 15:40:15;;;;;;;4.28;2.92;;;21.00;65.30;;;;;;1928845;73;21116;-80
2023/04/04 15:43:09;;;;;;;2.00;1.80;;;20.50;63.70;;;;;;1907229;74;21059;-80
2023/04/04 15:46:03;;;;;;;4.05;2.20;;;21.20;63.60;;;;;;1904017;75;21143;-79
2023/04/04 15:49:13;;;;;;;3.55;2.40;;;21.90;61.70;;;;;;1903691;75;21079;-79
2023/04/04 15:52:07;;;;;;;2.80;2.10;;;21.10;59.40;;;;;;1935759;73;21123;-80
2023/04/04 15:55:03;;;;;;;2.90;2.12;;;20.00;60.40;;;;;;1903793;75;21108;-80
2023/04/04 15:57:56;;;;;;;2.58;2.17;;;19.90;60.80;;;;;;1927235;73;21598;-80
2023/04/04 16:00:50;;;;;;;2.98;2.25;;;20.00;60.00;;;;;;1908771;74;21578;-80
2023/04/04 16:03:44;;;;;;;3.40;2.00;;;20.50;61.60;;;;;;1903931;75;21103;-80
2023/04/04 16:09:20;;;;;;;2.45;1.80;;;22.40;58.60;;;;;;1964250;72;22262;-79
2023/04/04 16:12:11;;;;;;;3.25;2.00;;;22.30;56.20;;;;;;1917007;75;21098;-81
2023/04/04 16:15:04;;;;;;;2.98;2.58;;;21.10;57.40;;;;;;1917638;73;21094;-79
2023/04/04 16:17:57;;;;;;;3.37;2.45;;;22.10;57.00;;;;;;1932748;73;21104;-80
2023/04/04 16:20:48;;;;;;;2.87;2.20;;;21.70;57.00;;;;;;1928383;74;21110;-82
2023/04/04 16:23:42;;;;;;;3.55;2.55;;;22.20;57.60;;;;;;1916872;75;21162;-80
2023/04/04 16:26:33;;;;;;;3.58;1.92;;;23.20;57.10;;;;;;1942421;73;21086;-80
2023/04/04 16:29:24;;;;;;;4.62;2.08;;;23.50;53.80;;;;;;1930449;73;21146;-81
2023/04/04 16:32:16;;;;;;;2.42;1.60;;;21.20;53.40;;;;;;1916387;75;21130;-79
2023/04/04 16:35:09;;;;;;;2.05;1.87;;;20.80;54.40;;;;;;1916664;75;21133;-81
2023/04/04 16:38:00;;;;;;;2.22;1.70;;;21.00;55.90;;;;;;1916898;75;21900;-80
2023/04/04 16:40:52;;;;;;;2.62;1.70;;;21.40;56.10;;;;;;1938618;73;21615;-79
2023/04/04 16:43:47;;;;;;;2.65;1.98;;;21.20;56.80;;;;;;1934678;73;21101;-79
2023/04/04 16:46:36;;;;;;;2.27;1.90;;;20.10;56.50;;;;;;1939561;73;21066;-81
2023/04/04 16:49:28;;;;;;;3.05;1.95;;;20.10;57.40;;;;;;1916972;75;21098;-80
2023/04/04 16:52:19;;;;;;;3.40;1.90;;;20.10;59.00;;;;;;1917055;75;21168;-79
2023/04/04 16:55:11;;;;;;;3.40;1.62;;;19.50;56.80;;;;;;1917138;73;21097;-80